Time;durP1;ratioP1;P1;durP2;ratioP2;P2;SDS_P1;SDS_P2;PMS_P1;PMS_P2;Temp;Humidity;BMP_temperature;BMP_pressure;BME280_temperature;BME280_humidity;BME280_pressure;Samples;Min_cycle;Max_cycle;Signal;HPM_P1;HPM_P2
2023/04/15 00:01:32;;;;;;;15.90;5.90;;;7.00;99.90;;;;;;4993328;28;20076;-80
2023/04/15 00:04:19;;;;;;;13.15;6.43;;;7.00;99.90;;;;;;4990552;28;20046;-82
2023/04/15 00:07:05;;;;;;;14.30;5.90;;;7.00;99.90;;;;;;4992395;28;20572;-80
2023/04/15 00:09:54;;;;;;;12.40;5.68;;;7.00;99.90;;;;;;4991784;28;20061;-81
2023/04/15 00:12:40;;;;;;;14.45;6.97;;;6.90;99.90;;;;;;4993509;28;20064;-82
2023/04/15 00:15:26;;;;;;;19.90;7.28;;;6.90;99.90;;;;;;4993187;28;20081;-80
2023/04/15 00:18:12;;;;;;;14.98;7.13;;;6.90;99.90;;;;;;4992270;28;20145;-82
2023/04/15 00:20:59;;;;;;;18.42;7.47;;;6.90;99.90;;;;;;4990390;28;20108;-81
2023/04/15 00:23:48;;;;;;;20.75;8.50;;;6.90;99.90;;;;;;5010086;28;20061;-81
2023/04/15 00:26:34;;;;;;;16.90;7.97;;;6.90;99.90;;;;;;4980382;28;20068;-82
2023/04/15 00:29:21;;;;;;;18.02;8.45;;;6.90;99.90;;;;;;4992141;28;20054;-82
2023/04/15 00:32:08;;;;;;;22.35;8.15;;;6.90;99.90;;;;;;4992245;28;20050;-82
2023/04/15 00:34:55;;;;;;;21.90;7.63;;;6.90;99.90;;;;;;4996799;28;20081;-83
2023/04/15 00:37:41;;;;;;;22.40;9.73;;;6.90;99.90;;;;;;4992789;28;20050;-81
2023/04/15 00:40:27;;;;;;;20.50;11.07;;;6.90;99.90;;;;;;5010496;28;20097;-84
2023/04/15 00:43:13;;;;;;;17.45;9.25;;;6.90;99.90;;;;;;4992662;28;20172;-83
2023/04/15 00:46:01;;;;;;;19.55;9.00;;;6.90;99.90;;;;;;4980340;28;20413;-82
2023/04/15 00:48:47;;;;;;;27.65;11.57;;;6.90;99.90;;;;;;4992822;28;20811;-83
2023/04/15 00:51:35;;;;;;;22.75;10.60;;;6.90;99.90;;;;;;4965327;28;20054;-83
2023/04/15 00:54:22;;;;;;;21.58;11.40;;;6.90;99.90;;;;;;4992004;28;20053;-83
2023/04/15 00:57:08;;;;;;;18.48;10.80;;;6.90;99.90;;;;;;4991786;28;20049;-83
2023/04/15 00:59:55;;;;;;;23.38;11.38;;;6.90;99.90;;;;;;4978971;28;20089;-84
2023/04/15 01:02:41;;;;;;;24.13;10.32;;;6.80;99.90;;;;;;4992772;28;20064;-82
2023/04/15 01:05:29;;;;;;;26.60;11.57;;;6.80;99.90;;;;;;4995287;28;20057;-83
2023/04/15 01:08:15;;;;;;;20.15;11.00;;;6.80;99.90;;;;;;4995040;28;20057;-82
2023/04/15 01:11:02;;;;;;;33.78;12.40;;;6.80;99.90;;;;;;5013583;28;20104;-82
2023/04/15 01:13:49;;;;;;;24.85;11.07;;;6.80;99.90;;;;;;4999381;28;20494;-82
2023/04/15 01:16:39;;;;;;;19.15;10.27;;;6.80;99.90;;;;;;5012645;28;20061;-82
2023/04/15 01:19:26;;;;;;;21.13;11.18;;;6.70;99.90;;;;;;4995128;28;20057;-81
2023/04/15 01:22:12;;;;;;;20.45;10.43;;;6.70;99.90;;;;;;4996412;28;20062;-83
2023/04/15 01:25:08;;;;;;;18.70;10.27;;;6.70;99.90;;;;;;4982523;28;20116;-81
2023/04/15 01:27:54;;;;;;;26.70;12.90;;;6.60;99.90;;;;;;4981714;28;20529;-83
2023/04/15 01:30:41;;;;;;;26.23;12.60;;;6.60;99.90;;;;;;4995847;28;20057;-83
2023/04/15 01:33:27;;;;;;;20.45;11.40;;;6.60;99.90;;;;;;4995511;28;20053;-83
2023/04/15 01:36:13;;;;;;;21.35;10.85;;;6.50;99.90;;;;;;4995094;28;20054;-84
2023/04/15 01:38:59;;;;;;;24.70;12.13;;;6.50;99.90;;;;;;4994781;28;20054;-81
2023/04/15 01:41:46;;;;;;;21.30;11.20;;;6.50;99.90;;;;;;4994771;28;20056;-82
2023/04/15 01:44:32;;;;;;;18.73;10.88;;;6.50;99.90;;;;;;4994484;28;20057;-82
2023/04/15 01:47:18;;;;;;;20.70;11.38;;;6.40;99.90;;;;;;4994707;28;20104;-82
2023/04/15 01:50:05;;;;;;;20.80;10.73;;;6.40;99.90;;;;;;4995105;28;20494;-82
2023/04/15 01:52:52;;;;;;;19.90;11.05;;;6.40;99.90;;;;;;4995670;28;20049;-82
2023/04/15 01:55:38;;;;;;;18.58;9.75;;;6.40;99.90;;;;;;4980685;28;20061;-82
2023/04/15 01:58:24;;;;;;;19.63;10.07;;;6.40;99.90;;;;;;4994529;28;20057;-82
2023/04/15 02:01:10;;;;;;;18.20;10.82;;;6.30;99.90;;;;;;4995159;28;20073;-82
2023/04/15 02:03:56;;;;;;;18.13;10.25;;;6.30;99.90;;;;;;5012400;28;20054;-82
2023/04/15 02:06:43;;;;;;;20.70;10.68;;;6.30;99.90;;;;;;4996043;28;20137;-83
2023/04/15 02:09:29;;;;;;;18.80;9.98;;;6.20;99.90;;;;;;5012054;28;20516;-82
2023/04/15 02:12:15;;;;;;;20.45;10.48;;;6.20;99.90;;;;;;4994165;28;20053;-82
2023/04/15 02:15:02;;;;;;;19.80;11.27;;;6.10;99.90;;;;;;4981112;28;20100;-82
2023/04/15 02:17:51;;;;;;;16.67;10.23;;;6.10;99.90;;;;;;4979773;28;20141;-82
2023/04/15 02:20:38;;;;;;;16.20;9.27;;;6.00;99.90;;;;;;4995112;28;20056;-83
2023/04/15 02:23:24;;;;;;;17.63;9.95;;;6.00;99.90;;;;;;4981629;28;20058;-82
2023/04/15 02:26:10;;;;;;;16.38;8.63;;;6.00;99.90;;;;;;4991391;28;20061;-81
2023/04/15 02:28:56;;;;;;;18.70;10.00;;;5.90;99.90;;;;;;4964461;28;20566;-82
2023/04/15 02:31:43;;;;;;;23.77;11.52;;;5.90;99.90;;;;;;4990935;28;20238;-83
2023/04/15 02:34:31;;;;;;;18.50;9.98;;;5.90;99.90;;;;;;4977910;28;20697;-82
2023/04/15 02:37:19;;;;;;;21.10;10.50;;;5.90;99.90;;;;;;4991041;28;20058;-82
2023/04/15 02:40:14;;;;;;;17.30;10.70;;;5.90;99.90;;;;;;4991407;28;20057;-82
2023/04/15 02:43:00;;;;;;;22.45;11.27;;;5.90;99.90;;;;;;4990440;28;20058;-82
2023/04/15 02:45:46;;;;;;;20.35;11.48;;;5.80;99.90;;;;;;4991997;28;20054;-83
2023/04/15 02:48:32;;;;;;;25.73;11.65;;;5.80;99.90;;;;;;4991583;28;20403;-82
2023/04/15 02:51:21;;;;;;;18.73;10.00;;;5.80;99.90;;;;;;4990477;28;20058;-83
2023/04/15 02:54:07;;;;;;;19.75;11.00;;;5.80;99.90;;;;;;4991172;28;20122;-82
2023/04/15 02:56:56;;;;;;;16.88;9.57;;;5.70;99.90;;;;;;4991460;28;20499;-83
2023/04/15 02:59:42;;;;;;;21.13;11.00;;;5.70;99.90;;;;;;4991233;28;20097;-83
2023/04/15 03:02:34;;;;;;;18.52;10.75;;;5.70;99.90;;;;;;4990663;28;20042;-83
2023/04/15 03:05:20;;;;;;;19.23;11.50;;;5.70;99.90;;;;;;4990954;28;20050;-82
2023/04/15 03:08:07;;;;;;;21.17;10.90;;;5.70;99.90;;;;;;4989898;28;20059;-81
2023/04/15 03:10:53;;;;;;;19.42;9.48;;;5.70;99.90;;;;;;4990447;28;20113;-81
2023/04/15 03:13:40;;;;;;;20.17;10.35;;;5.70;99.90;;;;;;4989785;28;20109;-83
2023/04/15 03:16:26;;;;;;;18.95;10.15;;;5.60;99.90;;;;;;4991484;28;20046;-82
2023/04/15 03:19:12;;;;;;;23.30;11.05;;;5.60;99.90;;;;;;4989754;28;20062;-81
2023/04/15 03:21:59;;;;;;;19.75;11.27;;;5.60;99.90;;;;;;4988993;28;20070;-82
2023/04/15 03:24:45;;;;;;;15.20;9.25;;;5.70;99.90;;;;;;4996679;28;20061;-83
2023/04/15 03:27:31;;;;;;;20.23;11.68;;;5.60;99.90;;;;;;4992652;28;20109;-82
2023/04/15 03:30:17;;;;;;;20.30;10.90;;;5.60;99.90;;;;;;4980327;28;20403;-83
2023/04/15 03:33:03;;;;;;;18.40;9.80;;;5.50;99.90;;;;;;4992015;28;20053;-81
2023/04/15 03:35:52;;;;;;;16.23;9.65;;;5.40;99.90;;;;;;5009933;28;20053;-82
2023/04/15 03:38:38;;;;;;;17.98;10.57;;;5.40;99.90;;;;;;4992280;28;20141;-82
2023/04/15 03:41:25;;;;;;;19.13;9.65;;;5.40;99.90;;;;;;4994069;28;20754;-82
2023/04/15 03:44:11;;;;;;;17.38;10.20;;;5.30;99.90;;;;;;4994041;28;20054;-82
2023/04/15 03:46:57;;;;;;;18.17;9.63;;;5.30;99.90;;;;;;5010716;28;20054;-82
2023/04/15 03:49:43;;;;;;;17.35;9.77;;;5.30;99.90;;;;;;4992154;28;20557;-81
2023/04/15 03:52:30;;;;;;;19.58;10.70;;;5.30;99.90;;;;;;4993743;28;20049;-81
2023/04/15 03:55:16;;;;;;;19.23;10.88;;;5.30;99.90;;;;;;5010242;28;20065;-81
2023/04/15 03:58:02;;;;;;;20.35;10.48;;;5.40;99.90;;;;;;4993763;28;20516;-81
2023/04/15 04:00:48;;;;;;;15.07;8.43;;;5.50;99.90;;;;;;4980100;28;20057;-81
2023/04/15 04:03:35;;;;;;;16.92;9.00;;;5.50;99.90;;;;;;4979232;28;20054;-82
2023/04/15 04:06:22;;;;;;;15.30;8.20;;;5.60;99.90;;;;;;4993575;28;20057;-83
2023/04/15 04:09:08;;;;;;;12.52;6.65;;;5.70;99.90;;;;;;5009564;28;20064;-82
2023/04/15 04:11:55;;;;;;;10.90;6.15;;;5.70;99.90;;;;;;4991994;28;20096;-81
2023/04/15 04:14:41;;;;;;;12.20;5.30;;;5.70;99.90;;;;;;5009321;28;20057;-82
2023/04/15 04:17:27;;;;;;;10.52;5.10;;;5.70;99.90;;;;;;4980008;28;20391;-84
2023/04/15 04:20:13;;;;;;;7.65;4.22;;;5.70;99.90;;;;;;4991986;28;20764;-83
2023/04/15 04:22:59;;;;;;;10.77;5.20;;;5.80;99.90;;;;;;4992913;28;20069;-82
2023/04/15 04:25:45;;;;;;;9.07;5.05;;;5.70;99.90;;;;;;4988241;28;20086;-82
2023/04/15 04:28:31;;;;;;;8.77;4.80;;;5.70;99.90;;;;;;4989259;28;20476;-82
2023/04/15 04:31:18;;;;;;;11.55;4.93;;;5.70;99.90;;;;;;4988999;28;20055;-83
2023/04/15 04:34:04;;;;;;;7.22;4.38;;;5.70;99.90;;;;;;4990131;28;20061;-83
2023/04/15 04:36:50;;;;;;;8.25;5.03;;;5.70;99.90;;;;;;4977189;28;20419;-81
2023/04/15 04:39:36;;;;;;;9.40;5.28;;;5.70;99.90;;;;;;4992900;28;20104;-82
2023/04/15 04:42:22;;;;;;;14.10;6.22;;;5.70;99.90;;;;;;4979561;28;20051;-82
2023/04/15 04:45:09;;;;;;;14.02;6.88;;;5.80;99.90;;;;;;4992661;28;20057;-81
2023/04/15 04:47:55;;;;;;;12.77;7.55;;;5.80;99.90;;;;;;4993878;28;20137;-82
2023/04/15 04:50:41;;;;;;;14.32;7.15;;;5.80;99.90;;;;;;4992799;28;20058;-81
2023/04/15 04:53:27;;;;;;;16.13;7.80;;;5.80;99.90;;;;;;4992388;28;20410;-81
2023/04/15 04:56:13;;;;;;;17.13;7.50;;;5.80;99.90;;;;;;4992522;28;20050;-82
2023/04/15 04:58:59;;;;;;;15.25;8.82;;;5.80;99.90;;;;;;4992388;28;20058;-82
2023/04/15 05:01:45;;;;;;;13.20;6.80;;;5.80;99.90;;;;;;4992095;28;20059;-81
2023/04/15 05:04:31;;;;;;;16.92;8.52;;;5.90;99.90;;;;;;4992236;28;20057;-82
2023/04/15 05:07:19;;;;;;;19.20;8.35;;;5.90;99.90;;;;;;4992302;28;20058;-82
2023/04/15 05:10:06;;;;;;;17.02;9.07;;;6.00;99.90;;;;;;4994097;28;20050;-82
2023/04/15 05:12:52;;;;;;;18.58;10.45;;;6.10;99.90;;;;;;4992008;28;20490;-82
2023/04/15 05:15:40;;;;;;;22.35;10.60;;;6.20;99.90;;;;;;4992912;28;20463;-82
2023/04/15 05:18:29;;;;;;;22.70;10.93;;;6.20;99.90;;;;;;4992961;28;20046;-82
2023/04/15 05:21:15;;;;;;;20.45;10.65;;;6.30;99.90;;;;;;4966928;28;20105;-82
2023/04/15 05:24:01;;;;;;;21.55;11.52;;;6.40;99.90;;;;;;4992216;28;20162;-82
2023/04/15 05:26:48;;;;;;;20.08;10.70;;;6.50;99.90;;;;;;4978489;28;20057;-82
2023/04/15 05:29:34;;;;;;;25.40;11.38;;;6.50;99.90;;;;;;4978348;28;20050;-82
2023/04/15 05:32:20;;;;;;;22.73;11.98;;;6.60;99.90;;;;;;4993103;28;20410;-80
2023/04/15 05:35:07;;;;;;;21.80;11.50;;;6.80;99.90;;;;;;4991277;28;20763;-82
2023/04/15 05:37:53;;;;;;;22.05;11.32;;;6.80;99.90;;;;;;4994306;28;20050;-81
2023/04/15 05:40:39;;;;;;;22.35;11.80;;;6.90;99.90;;;;;;4991734;28;20496;-80
2023/04/15 05:43:25;;;;;;;22.98;11.20;;;7.00;99.90;;;;;;4993662;28;20062;-81
2023/04/15 05:46:11;;;;;;;19.70;11.40;;;7.10;99.90;;;;;;4992878;28;20085;-82
2023/04/15 05:48:57;;;;;;;26.08;12.13;;;7.20;99.90;;;;;;4990190;28;20058;-82
2023/04/15 05:51:43;;;;;;;21.90;11.73;;;7.30;99.90;;;;;;4991541;28;20065;-82
2023/04/15 05:54:30;;;;;;;24.08;13.88;;;7.50;99.90;;;;;;4991299;28;20165;-81
2023/04/15 05:57:16;;;;;;;24.80;12.07;;;7.60;99.90;;;;;;4991760;28;20046;-81
2023/04/15 06:00:04;;;;;;;23.75;13.20;;;7.70;99.90;;;;;;4992125;28;20057;-82
2023/04/15 06:02:50;;;;;;;21.98;11.38;;;7.80;99.90;;;;;;4978867;28;20077;-81
2023/04/15 06:05:36;;;;;;;21.50;12.32;;;7.80;99.90;;;;;;4992518;28;20050;-81
2023/04/15 06:08:22;;;;;;;23.02;12.43;;;8.00;99.90;;;;;;4976956;28;20065;-81
2023/04/15 06:11:08;;;;;;;20.65;12.00;;;8.10;99.90;;;;;;4991549;28;20085;-81
2023/04/15 06:13:55;;;;;;;24.23;12.30;;;8.30;99.90;;;;;;4990993;28;20062;-80
2023/04/15 06:16:42;;;;;;;23.23;12.05;;;8.40;99.90;;;;;;4993220;28;20043;-82
2023/04/15 06:19:28;;;;;;;23.23;11.68;;;8.60;99.90;;;;;;4992482;28;20136;-80
2023/04/15 06:22:14;;;;;;;23.60;11.95;;;8.70;99.90;;;;;;4991784;28;20058;-80
2023/04/15 06:25:00;;;;;;;19.40;11.80;;;8.80;99.90;;;;;;4999256;28;20461;-80
2023/04/15 06:27:47;;;;;;;21.75;12.50;;;8.90;99.90;;;;;;4993680;28;20494;-80
2023/04/15 06:30:34;;;;;;;17.50;10.25;;;9.00;99.90;;;;;;4993820;28;20064;-80
2023/04/15 06:33:20;;;;;;;20.15;10.63;;;9.00;99.90;;;;;;5011010;28;20052;-82
2023/04/15 06:36:07;;;;;;;24.95;9.45;;;9.10;99.90;;;;;;4994617;28;20097;-80
2023/04/15 06:38:53;;;;;;;22.30;10.65;;;9.00;99.90;;;;;;4994814;28;20061;-82
2023/04/15 06:41:39;;;;;;;17.88;8.88;;;9.00;99.90;;;;;;5011965;28;20132;-82
2023/04/15 06:44:28;;;;;;;17.98;9.27;;;9.00;99.90;;;;;;5012307;28;20056;-82
2023/04/15 06:47:15;;;;;;;16.13;9.00;;;9.00;99.90;;;;;;5010767;28;20057;-81
2023/04/15 06:50:01;;;;;;;17.42;7.82;;;9.10;99.90;;;;;;5010509;28;20520;-82
2023/04/15 06:52:47;;;;;;;17.95;9.05;;;9.20;99.90;;;;;;4994217;28;20099;-83
2023/04/15 06:55:33;;;;;;;15.00;7.68;;;9.20;99.90;;;;;;4981080;28;20120;-81
2023/04/15 06:58:19;;;;;;;13.15;7.50;;;9.30;99.90;;;;;;4980737;28;20049;-82
2023/04/15 07:01:05;;;;;;;20.08;8.77;;;9.30;99.90;;;;;;4993082;28;20060;-80
2023/04/15 07:03:53;;;;;;;15.25;7.60;;;9.40;99.90;;;;;;4995106;28;20063;-84
2023/04/15 07:06:39;;;;;;;15.38;8.30;;;9.50;99.90;;;;;;4994938;28;20053;-83
2023/04/15 07:09:25;;;;;;;13.82;8.63;;;9.50;99.90;;;;;;5012235;28;20110;-82
2023/04/15 07:12:11;;;;;;;14.15;7.60;;;9.60;99.90;;;;;;5012041;28;20053;-83
2023/04/15 07:14:57;;;;;;;12.18;6.55;;;9.70;99.90;;;;;;4997373;28;20072;-83
2023/04/15 07:17:43;;;;;;;11.98;5.85;;;9.80;99.90;;;;;;4980947;28;20395;-84
2023/04/15 07:20:30;;;;;;;15.00;5.38;;;9.90;99.90;;;;;;4967282;28;20100;-82
2023/04/15 07:23:15;;;;;;;9.80;4.50;;;10.00;99.90;;;;;;4992491;28;20050;-83
2023/04/15 07:26:02;;;;;;;14.18;5.50;;;10.10;99.90;;;;;;4989019;28;20058;-84
2023/04/15 07:28:49;;;;;;;10.25;4.35;;;10.10;99.90;;;;;;4989959;28;20061;-83
2023/04/15 07:31:38;;;;;;;10.30;4.18;;;10.10;99.90;;;;;;4990223;28;20112;-84
2023/04/15 07:34:24;;;;;;;6.88;3.75;;;10.10;99.90;;;;;;4991353;28;20077;-84
2023/04/15 07:37:10;;;;;;;8.02;3.97;;;10.10;99.90;;;;;;4976853;28;20054;-83
2023/04/15 07:39:57;;;;;;;10.35;3.60;;;10.10;99.90;;;;;;4977100;28;20573;-83
2023/04/15 07:42:43;;;;;;;9.32;4.00;;;10.10;99.90;;;;;;4990245;28;20154;-84
2023/04/15 07:45:31;;;;;;;12.55;4.70;;;10.20;99.90;;;;;;5004122;28;20061;-84
2023/04/15 07:48:17;;;;;;;9.25;4.20;;;10.30;99.90;;;;;;4989402;28;20141;-84
2023/04/15 07:51:04;;;;;;;9.48;4.47;;;10.30;99.90;;;;;;4990438;28;20061;-84
2023/04/15 07:53:51;;;;;;;10.80;3.97;;;10.40;99.90;;;;;;4990398;28;20105;-83
2023/04/15 07:56:37;;;;;;;10.55;4.65;;;10.50;99.90;;;;;;4989483;28;20054;-84
2023/04/15 07:59:23;;;;;;;10.35;4.70;;;10.60;99.90;;;;;;4990589;28;20517;-85
2023/04/15 08:02:10;;;;;;;8.77;4.53;;;10.80;99.90;;;;;;4989369;28;20050;-82
2023/04/15 08:04:56;;;;;;;9.55;4.22;;;10.90;99.90;;;;;;4990293;28;20507;-84
2023/04/15 08:07:43;;;;;;;10.55;4.40;;;10.90;99.90;;;;;;4989130;28;20058;-85
2023/04/15 08:10:29;;;;;;;10.90;3.30;;;10.90;99.90;;;;;;4989078;28;20051;-84
2023/04/15 08:13:15;;;;;;;12.98;5.50;;;10.90;99.90;;;;;;4989419;28;20050;-83
2023/04/15 08:16:21;;;;;;;9.32;4.20;;;10.90;99.90;;;;;;4990276;28;20088;-83
2023/04/15 08:19:07;;;;;;;10.25;4.35;;;10.70;99.90;;;;;;4991615;28;20450;-84
2023/04/15 08:21:53;;;;;;;10.65;3.60;;;10.70;99.90;;;;;;4989854;28;20085;-84
2023/04/15 08:24:40;;;;;;;11.25;4.13;;;10.70;99.90;;;;;;4990612;28;20054;-84
2023/04/15 08:27:26;;;;;;;13.35;4.30;;;10.60;99.90;;;;;;4959523;28;20639;-81
2023/04/15 08:30:13;;;;;;;9.55;4.45;;;10.60;99.90;;;;;;4972084;28;20050;-84
2023/04/15 08:32:59;;;;;;;7.97;4.05;;;10.60;99.90;;;;;;4976407;28;20051;-86
2023/04/15 08:35:46;;;;;;;15.60;4.78;;;10.40;99.90;;;;;;4972795;28;20054;-85
2023/04/15 08:38:32;;;;;;;7.75;2.95;;;10.30;99.90;;;;;;4972853;28;20054;-81
2023/04/15 08:41:26;;;;;;;12.30;4.28;;;10.20;99.90;;;;;;4972974;28;20050;-84
2023/04/15 08:44:13;;;;;;;5.85;2.72;;;10.20;99.90;;;;;;4971679;28;20050;-81
2023/04/15 08:47:04;;;;;;;8.00;3.20;;;10.20;99.90;;;;;;4988050;28;20511;-86
2023/04/15 08:49:53;;;;;;;7.85;2.80;;;10.10;99.90;;;;;;4972630;28;20052;-82
2023/04/15 08:52:40;;;;;;;4.82;2.05;;;10.10;99.90;;;;;;4972153;28;20070;-83
2023/04/15 08:55:34;;;;;;;5.40;2.00;;;10.20;99.90;;;;;;4989140;28;20057;-81
2023/04/15 08:58:21;;;;;;;5.93;2.08;;;10.30;99.90;;;;;;4990223;28;20046;-81
2023/04/15 09:01:07;;;;;;;7.88;2.72;;;10.50;99.90;;;;;;4991229;28;20055;-82
2023/04/15 09:03:55;;;;;;;4.88;1.90;;;10.60;99.90;;;;;;4970800;28;20141;-83
2023/04/15 09:06:41;;;;;;;6.32;2.08;;;10.90;99.90;;;;;;4971604;28;20149;-82
2023/04/15 09:09:27;;;;;;;4.50;1.45;;;11.00;99.90;;;;;;4975735;28;20128;-82
2023/04/15 09:12:15;;;;;;;8.98;1.98;;;11.20;99.90;;;;;;4973036;28;20069;-82
2023/04/15 09:15:02;;;;;;;9.18;1.60;;;11.40;99.90;;;;;;4970991;28;20054;-83
2023/04/15 09:17:48;;;;;;;6.72;1.33;;;11.40;99.90;;;;;;4971948;28;20050;-83
2023/04/15 09:20:41;;;;;;;8.98;1.80;;;11.70;99.90;;;;;;4972890;28;20054;-80
2023/04/15 09:23:27;;;;;;;8.75;1.40;;;11.90;99.90;;;;;;4991145;28;20468;-83
2023/04/15 09:26:15;;;;;;;5.38;1.65;;;12.00;99.90;;;;;;5010803;28;20065;-83
2023/04/15 09:29:06;;;;;;;4.95;1.33;;;12.10;99.90;;;;;;4981419;28;20064;-82
2023/04/15 09:31:53;;;;;;;5.72;1.40;;;12.10;99.90;;;;;;4981004;28;20062;-83
2023/04/15 09:34:39;;;;;;;5.07;1.27;;;12.10;99.90;;;;;;4982705;28;20116;-82
2023/04/15 09:37:34;;;;;;;9.23;1.50;;;12.20;99.90;;;;;;4996293;28;20058;-83
2023/04/15 09:40:50;;;;;;;;;;;12.20;99.90;;;;;;4995160;28;20165;-84
2023/04/15 09:43:40;;;;;;;6.45;1.25;;;12.10;99.90;;;;;;4996660;28;19968;-82
2023/04/15 09:46:45;;;;;;;6.07;1.45;;;11.90;99.90;;;;;;5013281;28;20128;-83
2023/04/15 09:49:31;;;;;;;9.25;1.50;;;11.70;99.90;;;;;;4995451;28;20056;-82
2023/04/15 09:52:17;;;;;;;6.40;1.25;;;11.60;99.90;;;;;;4982483;28;20133;-83
2023/04/15 09:55:05;;;;;;;4.60;1.50;;;11.60;99.90;;;;;;4982833;28;20502;-82
2023/04/15 09:57:51;;;;;;;6.88;1.85;;;11.50;99.90;;;;;;4995331;28;20052;-81
2023/04/15 10:00:38;;;;;;;7.10;1.50;;;11.60;99.90;;;;;;4995239;28;20057;-83
2023/04/15 10:03:34;;;;;;;10.60;2.30;;;11.90;99.90;;;;;;4996588;28;20081;-83
2023/04/15 10:06:22;;;;;;;5.07;1.23;;;12.00;99.90;;;;;;5012770;28;20119;-81
2023/04/15 10:09:08;;;;;;;8.27;1.50;;;12.10;99.90;;;;;;4993692;28;20053;-82
2023/04/15 10:11:54;;;;;;;6.85;1.38;;;12.20;99.90;;;;;;4996196;28;20058;-81
2023/04/15 10:14:43;;;;;;;7.38;1.50;;;12.10;99.90;;;;;;4995509;28;20145;-81
2023/04/15 10:17:34;;;;;;;13.02;1.60;;;12.00;99.90;;;;;;4994756;28;20460;-82
2023/04/15 10:20:21;;;;;;;8.02;1.58;;;11.90;99.90;;;;;;4995190;28;20061;-80
2023/04/15 10:23:08;;;;;;;6.18;1.60;;;11.90;99.90;;;;;;5011900;28;20103;-81
2023/04/15 10:25:54;;;;;;;7.63;1.63;;;12.10;99.90;;;;;;4993092;28;20813;-81
2023/04/15 10:28:41;;;;;;;6.93;2.22;;;12.20;99.90;;;;;;5011885;28;20046;-81
2023/04/15 10:31:28;;;;;;;8.43;2.28;;;12.10;99.90;;;;;;5011690;28;20049;-83
2023/04/15 10:34:15;;;;;;;7.50;2.20;;;12.20;99.90;;;;;;5011305;28;20045;-82
2023/04/15 10:37:05;;;;;;;6.88;1.63;;;12.20;99.90;;;;;;5010790;28;20045;-80
2023/04/15 10:39:51;;;;;;;27.10;4.10;;;12.20;99.90;;;;;;4995953;28;20050;-81
2023/04/15 10:42:37;;;;;;;4.00;1.65;;;12.10;99.90;;;;;;4993405;28;20421;-81
2023/04/15 10:45:31;;;;;;;9.40;1.75;;;12.10;99.90;;;;;;4993187;28;20482;-82
2023/04/15 10:48:17;;;;;;;10.02;1.58;;;12.10;99.90;;;;;;5009287;28;20046;-83
2023/04/15 10:51:04;;;;;;;13.00;1.92;;;12.10;99.90;;;;;;4981286;28;20057;-83
2023/04/15 10:53:54;;;;;;;9.20;2.00;;;12.00;99.90;;;;;;4993432;28;20064;-81
2023/04/15 10:56:50;;;;;;;7.03;1.50;;;11.90;99.90;;;;;;4993586;28;20052;-81
2023/04/15 10:59:36;;;;;;;13.73;2.15;;;11.90;99.90;;;;;;4993874;28;20049;-82
2023/04/15 11:02:41;;;;;;;13.43;1.98;;;11.80;99.90;;;;;;4992907;28;20050;-81
2023/04/15 11:05:49;;;;;;;13.55;2.15;;;11.70;99.90;;;;;;4997091;28;20462;-81
2023/04/15 11:08:58;;;;;;;12.32;1.48;;;11.70;99.90;;;;;;5011784;28;20085;-81
2023/04/15 11:12:07;;;;;;;10.50;1.73;;;11.60;99.90;;;;;;5009146;28;20053;-81
2023/04/15 11:14:53;;;;;;;5.38;1.30;;;11.50;99.90;;;;;;5011925;28;20049;-81
2023/04/15 11:17:40;;;;;;;9.73;1.98;;;11.40;99.90;;;;;;4993058;28;20383;-82
2023/04/15 11:20:26;;;;;;;9.10;1.63;;;11.30;99.90;;;;;;4993332;28;20050;-81
2023/04/15 11:23:16;;;;;;;10.55;1.67;;;11.40;99.90;;;;;;4993634;28;20081;-81
2023/04/15 11:26:05;;;;;;;10.63;1.77;;;11.40;99.90;;;;;;5010944;28;20058;-83
2023/04/15 11:28:52;;;;;;;5.82;1.48;;;11.60;99.90;;;;;;4992751;28;20054;-83
2023/04/15 11:31:38;;;;;;;8.13;1.50;;;11.60;99.90;;;;;;4994996;28;20050;-82
2023/04/15 11:34:25;;;;;;;6.57;1.80;;;11.60;99.90;;;;;;4981324;28;20057;-81
2023/04/15 11:37:11;;;;;;;7.68;1.60;;;11.60;99.90;;;;;;5011835;28;20394;-83
2023/04/15 11:39:57;;;;;;;7.13;1.55;;;11.60;99.90;;;;;;4992362;28;20406;-82
2023/04/15 11:42:44;;;;;;;10.77;1.92;;;11.50;99.90;;;;;;4993124;28;20093;-83
2023/04/15 11:45:30;;;;;;;12.68;1.73;;;11.30;99.90;;;;;;4993636;28;20058;-82
2023/04/15 11:48:17;;;;;;;7.53;1.63;;;11.20;99.90;;;;;;5011031;28;20046;-84
2023/04/15 11:51:07;;;;;;;12.63;1.67;;;11.30;99.90;;;;;;4994263;28;20089;-81
2023/04/15 11:53:53;;;;;;;11.70;2.88;;;11.20;99.90;;;;;;4992186;28;20486;-83
2023/04/15 11:56:40;;;;;;;8.95;1.80;;;11.10;99.90;;;;;;5011519;28;20494;-81
2023/04/15 11:59:40;;;;;;;17.98;2.63;;;11.10;99.90;;;;;;4993542;28;20570;-81
2023/04/15 12:02:36;;;;;;;16.38;2.67;;;11.00;99.90;;;;;;5009924;28;20532;-82
2023/04/15 12:05:22;;;;;;;17.85;3.00;;;11.20;99.90;;;;;;4993311;28;20046;-82
2023/04/15 12:08:08;;;;;;;10.35;1.55;;;11.30;99.90;;;;;;4992078;28;20057;-83
2023/04/15 12:10:58;;;;;;;11.15;1.63;;;11.20;99.90;;;;;;4991950;28;20093;-82
2023/04/15 12:13:49;;;;;;;11.13;1.92;;;11.10;99.90;;;;;;4993629;28;20053;-82
2023/04/15 12:16:38;;;;;;;8.68;2.08;;;11.10;99.90;;;;;;4992106;28;20050;-82
2023/04/15 12:19:34;;;;;;;13.07;1.83;;;11.10;99.90;;;;;;4993368;28;20053;-83
2023/04/15 12:22:21;;;;;;;12.02;1.85;;;11.10;99.90;;;;;;4992083;28;20088;-83
2023/04/15 12:25:07;;;;;;;11.50;1.95;;;11.00;99.90;;;;;;4990761;28;20046;-83
2023/04/15 12:27:53;;;;;;;11.80;2.85;;;11.00;99.90;;;;;;4992735;28;20065;-83
2023/04/15 12:30:50;;;;;;;8.70;1.30;;;10.90;99.90;;;;;;4992518;28;20521;-84
2023/04/15 12:33:36;;;;;;;7.57;1.52;;;11.00;99.90;;;;;;4979931;28;20541;-82
2023/04/15 12:36:23;;;;;;;9.52;1.80;;;11.10;99.90;;;;;;5009576;28;20053;-84
2023/04/15 12:39:09;;;;;;;10.18;1.73;;;11.10;99.90;;;;;;5008803;28;20056;-83
2023/04/15 12:41:56;;;;;;;17.15;1.77;;;11.20;99.90;;;;;;4990915;28;20049;-82
2023/04/15 12:44:42;;;;;;;11.80;2.25;;;11.20;99.90;;;;;;4992961;28;20068;-83
2023/04/15 12:47:28;;;;;;;10.23;2.25;;;11.10;99.90;;;;;;4993575;28;20057;-83
2023/04/15 12:50:14;;;;;;;20.95;2.58;;;11.10;99.90;;;;;;4996512;28;20520;-82
2023/04/15 12:53:00;;;;;;;11.15;3.58;;;11.30;99.90;;;;;;4994386;28;20050;-82
2023/04/15 12:55:47;;;;;;;10.30;1.77;;;11.30;99.90;;;;;;4993072;28;20056;-83
2023/04/15 12:58:33;;;;;;;14.98;2.28;;;11.30;99.90;;;;;;4993583;28;20054;-83
2023/04/15 13:01:20;;;;;;;11.68;1.80;;;11.30;99.90;;;;;;4996704;28;20052;-84
2023/04/15 13:04:06;;;;;;;9.68;1.90;;;11.40;99.90;;;;;;4995185;28;20562;-83
2023/04/15 13:06:52;;;;;;;14.75;2.40;;;11.60;99.90;;;;;;4999308;28;20104;-82
2023/04/15 13:09:38;;;;;;;11.88;2.40;;;11.60;99.90;;;;;;5012201;28;20144;-81
2023/04/15 13:12:25;;;;;;;19.75;2.40;;;11.70;99.90;;;;;;5013977;28;20077;-82
2023/04/15 13:15:12;;;;;;;12.30;1.65;;;11.60;99.90;;;;;;5013968;28;20046;-85
2023/04/15 13:17:58;;;;;;;18.33;2.53;;;11.50;99.90;;;;;;4999427;28;20100;-83
2023/04/15 13:20:44;;;;;;;17.23;2.28;;;11.50;99.90;;;;;;4983137;28;20079;-83
2023/04/15 13:23:30;;;;;;;11.10;2.08;;;11.40;99.90;;;;;;4981873;28;20137;-82
2023/04/15 13:26:17;;;;;;;10.38;2.15;;;11.20;99.90;;;;;;4995018;28;20061;-82
2023/04/15 13:29:03;;;;;;;11.85;1.77;;;11.30;99.90;;;;;;4995632;28;20058;-84
2023/04/15 13:31:49;;;;;;;10.23;2.22;;;11.50;99.90;;;;;;4994348;28;20058;-83
2023/04/15 13:34:35;;;;;;;10.27;1.92;;;11.40;99.90;;;;;;4996246;28;20056;-83
2023/04/15 13:37:29;;;;;;;8.82;1.67;;;11.50;99.90;;;;;;4994806;28;20056;-84
2023/04/15 13:40:15;;;;;;;10.88;2.50;;;11.60;99.90;;;;;;4996015;28;20064;-84
2023/04/15 13:43:02;;;;;;;9.32;1.60;;;11.60;99.90;;;;;;5012540;28;20060;-81
2023/04/15 13:45:48;;;;;;;8.43;2.17;;;11.50;99.90;;;;;;4996350;28;20181;-85
2023/04/15 13:48:34;;;;;;;19.80;3.65;;;11.30;99.90;;;;;;4995880;28;20141;-84
2023/04/15 13:51:20;;;;;;;13.38;2.08;;;11.30;99.90;;;;;;5013540;28;20058;-82
2023/04/15 13:54:06;;;;;;;20.30;2.38;;;11.20;99.90;;;;;;4994336;28;20058;-81
2023/04/15 13:56:56;;;;;;;10.40;2.00;;;11.20;99.90;;;;;;5012322;28;20042;-84
2023/04/15 13:59:42;;;;;;;13.20;2.33;;;11.20;99.90;;;;;;4982634;28;20054;-83
2023/04/15 14:02:29;;;;;;;11.20;1.92;;;11.20;99.90;;;;;;4995943;28;20137;-84
2023/04/15 14:05:15;;;;;;;9.88;2.03;;;11.10;99.90;;;;;;4981987;28;20058;-82
2023/04/15 14:08:01;;;;;;;12.13;2.53;;;11.00;99.90;;;;;;4995266;28;20053;-82
2023/04/15 14:10:48;;;;;;;22.17;2.55;;;10.90;99.90;;;;;;4995199;28;20053;-84
2023/04/15 14:13:34;;;;;;;10.27;2.25;;;10.80;99.90;;;;;;5010537;28;20054;-83
2023/04/15 14:16:20;;;;;;;14.95;2.30;;;10.70;99.90;;;;;;4995065;28;20061;-82
2023/04/15 14:19:07;;;;;;;10.10;2.13;;;10.70;99.90;;;;;;4993452;28;20057;-83
2023/04/15 14:21:53;;;;;;;12.15;2.60;;;10.60;99.90;;;;;;5011324;28;20137;-84
2023/04/15 14:24:39;;;;;;;13.55;2.88;;;10.50;99.90;;;;;;4978410;28;20069;-83
2023/04/15 14:27:25;;;;;;;12.68;2.58;;;10.50;99.90;;;;;;4978362;28;20519;-80